Дата Пункты Температура Давл., мм. Влажн., % Ветер Погодные явления
Воздуха Воды Направл. Скорость
11.04.18 06:00 Одесса 5.0 9.0 756 96 Ю 2 06 ЧАСОВ
11.04.18 03:00 Одесса 6.0 9.0 756 95 С 0 03 ЧАСА
10.04.18 09:00 Одесса 11.0 9.0 756 78 З 1 21 ЧАС
10.04.18 06:00 Одесса 10.0 9.0 756 90 Ю-З 2 18 ЧАСОВ
10.04.18 03:00 Одесса 7.0 9.0 757 98 Ю 4 15 ЧАСОВ
10.04.18 12:00 Одесса 7.0 9.0 758 98 Ю 2 12 ЧАСОВ
10.04.18 09:00 Одесса 7.0 9.0 758 99 Ю-В 1 09 ЧАСОВ
10.04.18 06:00 Одесса 7.0 9.0 757 98 Ю 1 06 ЧАСОВ
10.04.18 03:00 Одесса 8.0 9.0 758 95 Ю 2 03 ЧАСА
09.04.18 09:00 Одесса 12.0 9.0 759 70 Ю-В 1 21 ЧАС
09.04.18 06:00 Одесса 13.0 10.0 760 63 Ю 2 18 ЧАСОВ
09.04.18 03:00 Одесса 16.0 10.0 761 52 В 3 15 ЧАСОВ
09.04.18 12:00 Одесса 16.0 9.0 762 52 С-В 4 12 ЧАСОВ
09.04.18 09:00 Одесса 10.0 9.0 763 72 С-В 4 09 ЧАСОВ
09.04.18 06:00 Одесса 9.0 9.0 763 64 С 2 06 ЧАСОВ
09.04.18 03:00 Одесса 10.0 9.0 764 58 С 2 03 ЧАСА
08.04.18 09:00 Одесса 14.0 9.0 765 46 В 1 21 ЧАС
08.04.18 06:00 Одесса 17.0 9.0 764 35 В 1 18 ЧАСОВ
08.04.18 03:00 Одесса 16.0 9.0 765 43 В 1 15 ЧАСОВ
08.04.18 12:00 Одесса 14.0 9.0 766 50 С-В 4 12 ЧАСОВ
Количество строк
1 2 3 4 5 6 7 8 9 10
Page 6 of 354